Semiplatinsk, Semipalatinsk Semey Airport (UASS)

NameSemipalatinsk Semey Airport
CitySemiplatinsk
CountryKazakhstan
ICAOUASS
IATAPLX
Altitude232 m
CoordinatesGoogle Map
Live Air TrafficLiveATC.net
METARUASS 191200Z 21005MPS 9999 -SHRA VCTS BKN040CB 22/11 Q1008 R26/0///60 NOSIG RMK QFE737/0983
2019-05-19 12:00:00 Wind: South-Southwest (210°) 5 m/s - Visibility: > 10000 m - Weather: Light Showers Rain / Vicinity Thunderstorm - Temperature: 22 °C - Dew point: 11 °C - Humidity: 49.8% - Pressure: 1008 hPa
Statistics

The table below shows the detailed information of all flights to/from Semiplatinsk, Semipalatinsk Semey Airport (UASS).